sensor_id;sensor_type;location;lat;lon;timestamp;temperature;humidity
24522;DHT22;12680;57.804;12.190;2023-04-16T00:00:25;10.30;96.00
24522;DHT22;12680;57.804;12.190;2023-04-16T00:02:52;10.30;96.00
24522;DHT22;12680;57.804;12.190;2023-04-16T00:05:19;10.20;96.00
24522;DHT22;12680;57.804;12.190;2023-04-16T00:07:46;10.20;96.00
24522;DHT22;12680;57.804;12.190;2023-04-16T00:10:13;10.20;96.10
24522;DHT22;12680;57.804;12.190;2023-04-16T00:12:40;10.30;96.20
24522;DHT22;12680;57.804;12.190;2023-04-16T00:15:10;10.30;96.20
24522;DHT22;12680;57.804;12.190;2023-04-16T00:17:37;10.30;96.20
24522;DHT22;12680;57.804;12.190;2023-04-16T00:20:04;10.20;96.20
24522;DHT22;12680;57.804;12.190;2023-04-16T00:22:32;10.20;96.20
24522;DHT22;12680;57.804;12.190;2023-04-16T00:24:58;10.30;96.20
24522;DHT22;12680;57.804;12.190;2023-04-16T00:27:25;10.20;96.10
24522;DHT22;12680;57.804;12.190;2023-04-16T00:29:52;10.10;96.00
24522;DHT22;12680;57.804;12.190;2023-04-16T00:32:19;10.10;96.00
24522;DHT22;12680;57.804;12.190;2023-04-16T00:34:46;11.20;96.30
24522;DHT22;12680;57.804;12.190;2023-04-16T00:37:13;11.30;96.40
24522;DHT22;12680;57.804;12.190;2023-04-16T00:39:39;10.00;96.20
24522;DHT22;12680;57.804;12.190;2023-04-16T00:42:09;10.80;96.50
24522;DHT22;12680;57.804;12.190;2023-04-16T00:44:36;10.50;96.30
24522;DHT22;12680;57.804;12.190;2023-04-16T00:47:03;10.60;96.20
24522;DHT22;12680;57.804;12.190;2023-04-16T00:49:33;10.50;96.30
24522;DHT22;12680;57.804;12.190;2023-04-16T00:52:01;9.80;96.20
24522;DHT22;12680;57.804;12.190;2023-04-16T00:54:29;10.30;96.40
24522;DHT22;12680;57.804;12.190;2023-04-16T00:56:58;9.80;96.40
24522;DHT22;12680;57.804;12.190;2023-04-16T00:59:26;9.80;96.30
24522;DHT22;12680;57.804;12.190;2023-04-16T01:01:53;11.30;96.70
24522;DHT22;12680;57.804;12.190;2023-04-16T01:04:20;9.80;96.30
24522;DHT22;12680;57.804;12.190;2023-04-16T01:06:47;9.80;96.20
24522;DHT22;12680;57.804;12.190;2023-04-16T01:09:14;9.80;96.20
24522;DHT22;12680;57.804;12.190;2023-04-16T01:11:40;11.40;96.70
24522;DHT22;12680;57.804;12.190;2023-04-16T01:14:07;9.70;96.50
24522;DHT22;12680;57.804;12.190;2023-04-16T01:16:34;11.20;96.70
24522;DHT22;12680;57.804;12.190;2023-04-16T01:19:01;10.20;96.40
24522;DHT22;12680;57.804;12.190;2023-04-16T01:21:28;10.60;96.50
24522;DHT22;12680;57.804;12.190;2023-04-16T01:23:55;11.10;96.70
24522;DHT22;12680;57.804;12.190;2023-04-16T01:26:22;9.70;96.40
24522;DHT22;12680;57.804;12.190;2023-04-16T01:28:48;9.70;96.40
24522;DHT22;12680;57.804;12.190;2023-04-16T01:31:15;9.70;96.40
24522;DHT22;12680;57.804;12.190;2023-04-16T01:33:42;9.70;96.40
24522;DHT22;12680;57.804;12.190;2023-04-16T01:36:08;9.80;96.40
24522;DHT22;12680;57.804;12.190;2023-04-16T01:38:35;9.70;96.40
24522;DHT22;12680;57.804;12.190;2023-04-16T01:41:02;9.60;96.30
24522;DHT22;12680;57.804;12.190;2023-04-16T01:43:29;10.70;96.60
24522;DHT22;12680;57.804;12.190;2023-04-16T01:46:16;9.50;96.30
24522;DHT22;12680;57.804;12.190;2023-04-16T01:48:44;9.50;96.40
24522;DHT22;12680;57.804;12.190;2023-04-16T01:51:11;10.40;96.70
24522;DHT22;12680;57.804;12.190;2023-04-16T01:53:38;9.90;96.70
24522;DHT22;12680;57.804;12.190;2023-04-16T01:56:05;9.40;96.40
24522;DHT22;12680;57.804;12.190;2023-04-16T01:58:32;9.40;96.30
24522;DHT22;12680;57.804;12.190;2023-04-16T02:00:59;9.50;96.50
24522;DHT22;12680;57.804;12.190;2023-04-16T02:03:26;11.10;97.00
24522;DHT22;12680;57.804;12.190;2023-04-16T02:05:53;9.50;96.60
24522;DHT22;12680;57.804;12.190;2023-04-16T02:08:20;9.50;96.60
24522;DHT22;12680;57.804;12.190;2023-04-16T02:10:49;9.60;96.60
24522;DHT22;12680;57.804;12.190;2023-04-16T02:13:16;10.50;96.60
24522;DHT22;12680;57.804;12.190;2023-04-16T02:15:46;9.40;96.00
24522;DHT22;12680;57.804;12.190;2023-04-16T02:18:14;9.60;96.10
24522;DHT22;12680;57.804;12.190;2023-04-16T02:20:45;9.30;96.10
24522;DHT22;12680;57.804;12.190;2023-04-16T02:23:12;9.20;96.00
24522;DHT22;12680;57.804;12.190;2023-04-16T02:25:41;9.20;95.90
24522;DHT22;12680;57.804;12.190;2023-04-16T02:28:10;9.00;95.90
24522;DHT22;12680;57.804;12.190;2023-04-16T02:30:38;9.10;95.90
24522;DHT22;12680;57.804;12.190;2023-04-16T02:33:06;9.00;95.80
24522;DHT22;12680;57.804;12.190;2023-04-16T02:35:34;9.70;96.00
24522;DHT22;12680;57.804;12.190;2023-04-16T02:38:01;8.90;95.80
24522;DHT22;12680;57.804;12.190;2023-04-16T02:40:28;9.90;96.30
24522;DHT22;12680;57.804;12.190;2023-04-16T02:42:55;8.90;95.90
24522;DHT22;12680;57.804;12.190;2023-04-16T02:45:23;8.90;95.90
24522;DHT22;12680;57.804;12.190;2023-04-16T02:47:51;8.90;96.00
24522;DHT22;12680;57.804;12.190;2023-04-16T02:50:18;10.20;96.50
24522;DHT22;12680;57.804;12.190;2023-04-16T02:52:45;8.80;95.70
24522;DHT22;12680;57.804;12.190;2023-04-16T02:55:12;10.70;96.30
24522;DHT22;12680;57.804;12.190;2023-04-16T02:57:40;9.90;96.10
24522;DHT22;12680;57.804;12.190;2023-04-16T03:00:08;8.80;95.90
24522;DHT22;12680;57.804;12.190;2023-04-16T03:02:35;8.80;96.00
24522;DHT22;12680;57.804;12.190;2023-04-16T03:05:03;9.90;96.30
24522;DHT22;12680;57.804;12.190;2023-04-16T03:07:29;8.90;95.90
24522;DHT22;12680;57.804;12.190;2023-04-16T03:09:57;8.90;96.00
24522;DHT22;12680;57.804;12.190;2023-04-16T03:12:24;10.20;96.30
24522;DHT22;12680;57.804;12.190;2023-04-16T03:14:50;9.00;95.80
24522;DHT22;12680;57.804;12.190;2023-04-16T03:17:20;9.00;95.80
24522;DHT22;12680;57.804;12.190;2023-04-16T03:19:47;9.00;95.80
24522;DHT22;12680;57.804;12.190;2023-04-16T03:22:16;10.20;96.20
24522;DHT22;12680;57.804;12.190;2023-04-16T03:24:43;9.00;95.70
24522;DHT22;12680;57.804;12.190;2023-04-16T03:27:10;10.30;96.00
24522;DHT22;12680;57.804;12.190;2023-04-16T03:29:39;10.50;96.10
24522;DHT22;12680;57.804;12.190;2023-04-16T03:32:07;8.90;95.70
24522;DHT22;12680;57.804;12.190;2023-04-16T03:34:33;8.90;95.60
24522;DHT22;12680;57.804;12.190;2023-04-16T03:37:02;9.80;95.90
24522;DHT22;12680;57.804;12.190;2023-04-16T03:39:32;8.90;95.60
24522;DHT22;12680;57.804;12.190;2023-04-16T03:42:00;8.90;95.50
24522;DHT22;12680;57.804;12.190;2023-04-16T03:44:28;8.90;95.50
24522;DHT22;12680;57.804;12.190;2023-04-16T03:46:55;8.90;95.40
24522;DHT22;12680;57.804;12.190;2023-04-16T03:49:22;8.80;95.30
24522;DHT22;12680;57.804;12.190;2023-04-16T03:51:49;8.80;95.40
24522;DHT22;12680;57.804;12.190;2023-04-16T03:54:16;10.30;95.90
24522;DHT22;12680;57.804;12.190;2023-04-16T03:56:49;8.80;95.40
24522;DHT22;12680;57.804;12.190;2023-04-16T03:59:21;8.80;95.50
24522;DHT22;12680;57.804;12.190;2023-04-16T04:01:52;8.80;95.40
24522;DHT22;12680;57.804;12.190;2023-04-16T04:04:19;8.80;95.40
24522;DHT22;12680;57.804;12.190;2023-04-16T04:06:46;8.70;95.40
24522;DHT22;12680;57.804;12.190;2023-04-16T04:09:13;8.70;95.30
24522;DHT22;12680;57.804;12.190;2023-04-16T04:11:42;8.70;95.40
24522;DHT22;12680;57.804;12.190;2023-04-16T04:14:09;10.30;95.90
24522;DHT22;12680;57.804;12.190;2023-04-16T04:16:36;8.70;95.40
24522;DHT22;12680;57.804;12.190;2023-04-16T04:19:03;8.60;95.20
24522;DHT22;12680;57.804;12.190;2023-04-16T04:21:30;9.10;95.30
24522;DHT22;12680;57.804;12.190;2023-04-16T04:23:57;8.60;95.20
24522;DHT22;12680;57.804;12.190;2023-04-16T04:26:24;8.60;95.20
24522;DHT22;12680;57.804;12.190;2023-04-16T04:28:51;8.60;95.20
24522;DHT22;12680;57.804;12.190;2023-04-16T04:31:18;8.60;95.30
24522;DHT22;12680;57.804;12.190;2023-04-16T04:33:48;8.60;95.20
24522;DHT22;12680;57.804;12.190;2023-04-16T04:36:15;8.60;95.30
24522;DHT22;12680;57.804;12.190;2023-04-16T04:38:45;8.70;95.30
24522;DHT22;12680;57.804;12.190;2023-04-16T04:41:12;9.40;95.40
24522;DHT22;12680;57.804;12.190;2023-04-16T04:43:42;8.70;95.20
24522;DHT22;12680;57.804;12.190;2023-04-16T04:46:09;8.70;95.10
24522;DHT22;12680;57.804;12.190;2023-04-16T04:48:36;8.60;94.90
24522;DHT22;12680;57.804;12.190;2023-04-16T04:51:03;8.60;94.90
24522;DHT22;12680;57.804;12.190;2023-04-16T04:53:31;8.50;94.80
24522;DHT22;12680;57.804;12.190;2023-04-16T04:55:58;8.50;94.90
24522;DHT22;12680;57.804;12.190;2023-04-16T04:58:40;8.50;95.00
24522;DHT22;12680;57.804;12.190;2023-04-16T05:01:08;9.30;95.20
24522;DHT22;12680;57.804;12.190;2023-04-16T05:03:35;8.50;95.00
24522;DHT22;12680;57.804;12.190;2023-04-16T05:06:02;8.50;95.00
24522;DHT22;12680;57.804;12.190;2023-04-16T05:08:29;8.50;94.90
24522;DHT22;12680;57.804;12.190;2023-04-16T05:10:56;8.50;94.90
24522;DHT22;12680;57.804;12.190;2023-04-16T05:13:23;8.50;94.80
24522;DHT22;12680;57.804;12.190;2023-04-16T05:15:50;8.40;94.80
24522;DHT22;12680;57.804;12.190;2023-04-16T05:18:16;7.50;94.40
24522;DHT22;12680;57.804;12.190;2023-04-16T05:20:43;8.40;94.70
24522;DHT22;12680;57.804;12.190;2023-04-16T05:23:13;8.50;94.90
24522;DHT22;12680;57.804;12.190;2023-04-16T05:25:41;8.70;94.90
24522;DHT22;12680;57.804;12.190;2023-04-16T05:28:08;8.50;94.80
24522;DHT22;12680;57.804;12.190;2023-04-16T05:30:35;8.50;94.80
24522;DHT22;12680;57.804;12.190;2023-04-16T05:33:03;8.50;94.70
24522;DHT22;12680;57.804;12.190;2023-04-16T05:35:30;8.60;94.60
24522;DHT22;12680;57.804;12.190;2023-04-16T05:37:56;8.60;94.50
24522;DHT22;12680;57.804;12.190;2023-04-16T05:40:23;8.60;94.20
24522;DHT22;12680;57.804;12.190;2023-04-16T05:42:50;8.50;94.60
24522;DHT22;12680;57.804;12.190;2023-04-16T05:45:17;8.50;94.30
24522;DHT22;12680;57.804;12.190;2023-04-16T05:47:43;8.40;94.10
24522;DHT22;12680;57.804;12.190;2023-04-16T05:50:10;8.40;94.10
24522;DHT22;12680;57.804;12.190;2023-04-16T05:52:37;8.50;94.30
24522;DHT22;12680;57.804;12.190;2023-04-16T05:55:04;8.50;94.20
24522;DHT22;12680;57.804;12.190;2023-04-16T05:57:32;8.50;94.20
24522;DHT22;12680;57.804;12.190;2023-04-16T05:59:59;9.70;94.40
24522;DHT22;12680;57.804;12.190;2023-04-16T06:02:25;8.50;94.20
24522;DHT22;12680;57.804;12.190;2023-04-16T06:04:52;8.60;94.20
24522;DHT22;12680;57.804;12.190;2023-04-16T06:07:19;8.60;94.20
24522;DHT22;12680;57.804;12.190;2023-04-16T06:09:46;8.70;94.20
24522;DHT22;12680;57.804;12.190;2023-04-16T06:12:13;8.70;94.10
24522;DHT22;12680;57.804;12.190;2023-04-16T06:14:40;8.80;94.10
24522;DHT22;12680;57.804;12.190;2023-04-16T06:17:06;8.80;93.90
24522;DHT22;12680;57.804;12.190;2023-04-16T06:19:33;8.90;93.80
24522;DHT22;12680;57.804;12.190;2023-04-16T06:22:00;8.90;93.80
24522;DHT22;12680;57.804;12.190;2023-04-16T06:24:27;9.00;93.70
24522;DHT22;12680;57.804;12.190;2023-04-16T06:26:54;10.50;94.10
24522;DHT22;12680;57.804;12.190;2023-04-16T06:29:21;9.10;93.70
24522;DHT22;12680;57.804;12.190;2023-04-16T06:31:59;9.20;93.90
24522;DHT22;12680;57.804;12.190;2023-04-16T06:34:27;9.30;93.90
24522;DHT22;12680;57.804;12.190;2023-04-16T06:36:54;10.80;94.30
24522;DHT22;12680;57.804;12.190;2023-04-16T06:39:21;9.50;93.80
24522;DHT22;12680;57.804;12.190;2023-04-16T06:41:48;9.50;93.60
24522;DHT22;12680;57.804;12.190;2023-04-16T06:44:14;9.50;93.30
24522;DHT22;12680;57.804;12.190;2023-04-16T06:46:41;11.20;93.80
24522;DHT22;12680;57.804;12.190;2023-04-16T06:49:08;9.50;93.10
24522;DHT22;12680;57.804;12.190;2023-04-16T06:51:35;9.60;93.10
24522;DHT22;12680;57.804;12.190;2023-04-16T06:54:02;9.60;93.10
24522;DHT22;12680;57.804;12.190;2023-04-16T06:56:29;9.60;93.10
24522;DHT22;12680;57.804;12.190;2023-04-16T06:58:56;9.70;93.10
24522;DHT22;12680;57.804;12.190;2023-04-16T07:01:24;9.80;93.00
24522;DHT22;12680;57.804;12.190;2023-04-16T07:03:51;11.50;93.50
24522;DHT22;12680;57.804;12.190;2023-04-16T07:06:18;10.70;93.00
24522;DHT22;12680;57.804;12.190;2023-04-16T07:08:45;9.90;92.80
24522;DHT22;12680;57.804;12.190;2023-04-16T07:11:12;9.90;92.60
24522;DHT22;12680;57.804;12.190;2023-04-16T07:13:39;9.90;92.70
24522;DHT22;12680;57.804;12.190;2023-04-16T07:16:05;11.30;93.10
24522;DHT22;12680;57.804;12.190;2023-04-16T07:18:32;10.00;92.40
24522;DHT22;12680;57.804;12.190;2023-04-16T07:20:59;10.00;92.50
24522;DHT22;12680;57.804;12.190;2023-04-16T07:23:26;10.00;92.40
24522;DHT22;12680;57.804;12.190;2023-04-16T07:25:53;10.00;92.30
24522;DHT22;12680;57.804;12.190;2023-04-16T07:28:20;10.00;92.40
24522;DHT22;12680;57.804;12.190;2023-04-16T07:30:47;10.00;92.50
24522;DHT22;12680;57.804;12.190;2023-04-16T07:33:14;10.10;92.60
24522;DHT22;12680;57.804;12.190;2023-04-16T07:35:41;10.10;92.50
24522;DHT22;12680;57.804;12.190;2023-04-16T07:38:08;10.10;92.60
24522;DHT22;12680;57.804;12.190;2023-04-16T07:40:35;10.20;92.60
24522;DHT22;12680;57.804;12.190;2023-04-16T07:43:02;10.20;92.60
24522;DHT22;12680;57.804;12.190;2023-04-16T07:45:29;11.60;93.00
24522;DHT22;12680;57.804;12.190;2023-04-16T07:47:56;10.50;92.70
24522;DHT22;12680;57.804;12.190;2023-04-16T07:50:23;10.60;92.70
24522;DHT22;12680;57.804;12.190;2023-04-16T07:52:50;10.70;92.40
24522;DHT22;12680;57.804;12.190;2023-04-16T07:55:16;10.70;92.50
24522;DHT22;12680;57.804;12.190;2023-04-16T07:57:43;10.80;92.50
24522;DHT22;12680;57.804;12.190;2023-04-16T08:00:10;10.80;92.10
24522;DHT22;12680;57.804;12.190;2023-04-16T08:02:37;10.80;92.10
24522;DHT22;12680;57.804;12.190;2023-04-16T08:05:04;11.30;92.30
24522;DHT22;12680;57.804;12.190;2023-04-16T08:07:32;11.00;92.30
24522;DHT22;12680;57.804;12.190;2023-04-16T08:10:00;11.40;92.30
24522;DHT22;12680;57.804;12.190;2023-04-16T08:12:28;11.10;92.10
24522;DHT22;12680;57.804;12.190;2023-04-16T08:14:55;11.20;91.80
24522;DHT22;12680;57.804;12.190;2023-04-16T08:17:22;11.90;92.00
24522;DHT22;12680;57.804;12.190;2023-04-16T08:19:49;11.20;92.00
24522;DHT22;12680;57.804;12.190;2023-04-16T08:22:16;11.80;92.20
24522;DHT22;12680;57.804;12.190;2023-04-16T08:24:43;11.50;91.90
24522;DHT22;12680;57.804;12.190;2023-04-16T08:27:10;12.30;92.00
24522;DHT22;12680;57.804;12.190;2023-04-16T08:29:45;11.70;92.00
24522;DHT22;12680;57.804;12.190;2023-04-16T08:32:12;13.00;92.00
24522;DHT22;12680;57.804;12.190;2023-04-16T08:34:39;11.90;91.50
24522;DHT22;12680;57.804;12.190;2023-04-16T08:37:07;11.60;91.30
24522;DHT22;12680;57.804;12.190;2023-04-16T08:39:34;13.40;91.50
24522;DHT22;12680;57.804;12.190;2023-04-16T08:42:03;12.00;91.00
24522;DHT22;12680;57.804;12.190;2023-04-16T08:44:33;12.60;91.30
24522;DHT22;12680;57.804;12.190;2023-04-16T08:47:00;12.20;91.00
24522;DHT22;12680;57.804;12.190;2023-04-16T08:49:28;12.30;90.90
24522;DHT22;12680;57.804;12.190;2023-04-16T08:51:55;12.30;90.70
24522;DHT22;12680;57.804;12.190;2023-04-16T08:54:51;12.30;90.60
24522;DHT22;12680;57.804;12.190;2023-04-16T08:57:23;12.40;90.70
24522;DHT22;12680;57.804;12.190;2023-04-16T08:59:53;12.40;90.60
24522;DHT22;12680;57.804;12.190;2023-04-16T09:02:20;12.40;90.70
24522;DHT22;12680;57.804;12.190;2023-04-16T09:04:48;13.20;91.00
24522;DHT22;12680;57.804;12.190;2023-04-16T09:07:16;12.50;90.70
24522;DHT22;12680;57.804;12.190;2023-04-16T09:09:44;12.50;90.70
24522;DHT22;12680;57.804;12.190;2023-04-16T09:12:12;13.70;91.00
24522;DHT22;12680;57.804;12.190;2023-04-16T09:14:38;12.80;90.90
24522;DHT22;12680;57.804;12.190;2023-04-16T09:17:08;12.80;90.60
24522;DHT22;12680;57.804;12.190;2023-04-16T09:19:35;13.00;90.60
24522;DHT22;12680;57.804;12.190;2023-04-16T09:22:01;13.00;90.30
24522;DHT22;12680;57.804;12.190;2023-04-16T09:24:29;13.90;90.50
24522;DHT22;12680;57.804;12.190;2023-04-16T09:26:56;13.20;90.10
24522;DHT22;12680;57.804;12.190;2023-04-16T09:29:33;14.00;90.30
24522;DHT22;12680;57.804;12.190;2023-04-16T09:32:06;13.50;89.90
24522;DHT22;12680;57.804;12.190;2023-04-16T09:34:37;13.70;90.00
24522;DHT22;12680;57.804;12.190;2023-04-16T09:37:19;13.90;89.50
24522;DHT22;12680;57.804;12.190;2023-04-16T09:39:55;14.00;88.90
24522;DHT22;12680;57.804;12.190;2023-04-16T09:42:28;14.10;88.70
24522;DHT22;12680;57.804;12.190;2023-04-16T09:44:55;15.70;88.80
24522;DHT22;12680;57.804;12.190;2023-04-16T09:47:38;14.30;87.10
24522;DHT22;12680;57.804;12.190;2023-04-16T09:50:06;14.30;87.10
24522;DHT22;12680;57.804;12.190;2023-04-16T09:52:36;14.40;86.20
24522;DHT22;12680;57.804;12.190;2023-04-16T09:55:04;14.40;86.60
24522;DHT22;12680;57.804;12.190;2023-04-16T09:57:31;14.60;86.10
24522;DHT22;12680;57.804;12.190;2023-04-16T10:00:04;14.50;84.60
24522;DHT22;12680;57.804;12.190;2023-04-16T10:02:31;14.60;84.70
24522;DHT22;12680;57.804;12.190;2023-04-16T10:05:01;14.70;84.50
24522;DHT22;12680;57.804;12.190;2023-04-16T10:07:34;14.80;84.20
24522;DHT22;12680;57.804;12.190;2023-04-16T10:10:03;14.90;84.20
24522;DHT22;12680;57.804;12.190;2023-04-16T10:12:30;15.20;84.50
24522;DHT22;12680;57.804;12.190;2023-04-16T10:14:58;15.20;82.70
24522;DHT22;12680;57.804;12.190;2023-04-16T10:17:25;15.20;81.90
24522;DHT22;12680;57.804;12.190;2023-04-16T10:19:56;15.20;82.20
24522;DHT22;12680;57.804;12.190;2023-04-16T10:22:24;15.30;82.70
24522;DHT22;12680;57.804;12.190;2023-04-16T10:24:52;15.60;83.10
24522;DHT22;12680;57.804;12.190;2023-04-16T10:27:19;15.90;82.30
24522;DHT22;12680;57.804;12.190;2023-04-16T10:29:47;15.80;81.40
24522;DHT22;12680;57.804;12.190;2023-04-16T10:32:15;15.80;81.10
24522;DHT22;12680;57.804;12.190;2023-04-16T10:34:44;15.80;80.40
24522;DHT22;12680;57.804;12.190;2023-04-16T10:37:11;15.80;80.20
24522;DHT22;12680;57.804;12.190;2023-04-16T10:39:38;15.80;79.30
24522;DHT22;12680;57.804;12.190;2023-04-16T10:42:09;15.80;79.10
24522;DHT22;12680;57.804;12.190;2023-04-16T10:44:38;16.50;79.60
24522;DHT22;12680;57.804;12.190;2023-04-16T10:47:11;15.70;79.20
24522;DHT22;12680;57.804;12.190;2023-04-16T10:49:41;15.80;79.70
24522;DHT22;12680;57.804;12.190;2023-04-16T10:52:11;15.80;79.30
24522;DHT22;12680;57.804;12.190;2023-04-16T10:54:39;15.80;78.50
24522;DHT22;12680;57.804;12.190;2023-04-16T10:57:08;16.20;79.30
24522;DHT22;12680;57.804;12.190;2023-04-16T10:59:37;16.10;78.50
24522;DHT22;12680;57.804;12.190;2023-04-16T11:02:13;15.80;78.00
24522;DHT22;12680;57.804;12.190;2023-04-16T11:04:42;15.70;78.10
24522;DHT22;12680;57.804;12.190;2023-04-16T11:09:56;15.60;77.90
24522;DHT22;12680;57.804;12.190;2023-04-16T11:12:36;15.70;77.80
24522;DHT22;12680;57.804;12.190;2023-04-16T11:15:05;15.70;78.10
24522;DHT22;12680;57.804;12.190;2023-04-16T11:17:38;15.80;78.50
24522;DHT22;12680;57.804;12.190;2023-04-16T11:20:07;16.50;78.30
24522;DHT22;12680;57.804;12.190;2023-04-16T11:22:49;15.90;78.00
24522;DHT22;12680;57.804;12.190;2023-04-16T11:25:27;16.00;78.10
24522;DHT22;12680;57.804;12.190;2023-04-16T11:28:01;16.10;77.80
24522;DHT22;12680;57.804;12.190;2023-04-16T11:30:35;16.20;77.20
24522;DHT22;12680;57.804;12.190;2023-04-16T11:33:11;16.30;77.00
24522;DHT22;12680;57.804;12.190;2023-04-16T11:35:39;16.30;76.60
24522;DHT22;12680;57.804;12.190;2023-04-16T11:38:07;16.30;76.60
24522;DHT22;12680;57.804;12.190;2023-04-16T11:40:34;17.90;77.00
24522;DHT22;12680;57.804;12.190;2023-04-16T11:43:12;16.30;76.10
24522;DHT22;12680;57.804;12.190;2023-04-16T11:45:56;16.30;75.90
24522;DHT22;12680;57.804;12.190;2023-04-16T11:48:23;16.20;75.40
24522;DHT22;12680;57.804;12.190;2023-04-16T11:50:57;17.00;76.90
24522;DHT22;12680;57.804;12.190;2023-04-16T11:53:24;17.40;76.70
24522;DHT22;12680;57.804;12.190;2023-04-16T11:55:51;16.40;76.10
24522;DHT22;12680;57.804;12.190;2023-04-16T11:58:18;16.70;75.00
24522;DHT22;12680;57.804;12.190;2023-04-16T12:00:47;16.70;75.10
24522;DHT22;12680;57.804;12.190;2023-04-16T12:03:15;16.60;75.30
24522;DHT22;12680;57.804;12.190;2023-04-16T12:05:42;16.70;74.80
24522;DHT22;12680;57.804;12.190;2023-04-16T12:08:10;16.70;74.50
24522;DHT22;12680;57.804;12.190;2023-04-16T12:10:53;16.80;74.60
24522;DHT22;12680;57.804;12.190;2023-04-16T12:13:20;16.80;73.80
24522;DHT22;12680;57.804;12.190;2023-04-16T12:15:52;16.80;73.40
24522;DHT22;12680;57.804;12.190;2023-04-16T12:18:20;16.90;73.00
24522;DHT22;12680;57.804;12.190;2023-04-16T12:20:51;16.90;73.40
24522;DHT22;12680;57.804;12.190;2023-04-16T12:23:29;17.00;72.50
24522;DHT22;12680;57.804;12.190;2023-04-16T12:25:56;17.00;71.70
24522;DHT22;12680;57.804;12.190;2023-04-16T12:28:33;17.00;71.30
24522;DHT22;12680;57.804;12.190;2023-04-16T12:31:01;17.00;71.80
24522;DHT22;12680;57.804;12.190;2023-04-16T12:33:28;17.20;72.10
24522;DHT22;12680;57.804;12.190;2023-04-16T12:35:56;17.40;71.60
24522;DHT22;12680;57.804;12.190;2023-04-16T12:38:23;17.40;71.20
24522;DHT22;12680;57.804;12.190;2023-04-16T12:40:51;17.50;71.30
24522;DHT22;12680;57.804;12.190;2023-04-16T12:43:20;17.60;71.20
24522;DHT22;12680;57.804;12.190;2023-04-16T12:45:48;17.70;70.40
24522;DHT22;12680;57.804;12.190;2023-04-16T12:48:15;17.70;70.00
24522;DHT22;12680;57.804;12.190;2023-04-16T12:50:41;17.60;68.60
24522;DHT22;12680;57.804;12.190;2023-04-16T12:53:10;17.50;68.60
24522;DHT22;12680;57.804;12.190;2023-04-16T12:55:37;17.40;67.60
24522;DHT22;12680;57.804;12.190;2023-04-16T12:58:04;17.50;67.60
24522;DHT22;12680;57.804;12.190;2023-04-16T13:00:31;17.40;67.80
24522;DHT22;12680;57.804;12.190;2023-04-16T13:02:58;17.40;67.80
24522;DHT22;12680;57.804;12.190;2023-04-16T13:05:25;18.00;68.40
24522;DHT22;12680;57.804;12.190;2023-04-16T13:07:53;17.80;67.50
24522;DHT22;12680;57.804;12.190;2023-04-16T13:10:20;17.70;67.40
24522;DHT22;12680;57.804;12.190;2023-04-16T13:12:47;17.90;65.80
24522;DHT22;12680;57.804;12.190;2023-04-16T13:15:14;17.90;64.20
24522;DHT22;12680;57.804;12.190;2023-04-16T13:17:41;17.90;64.20
24522;DHT22;12680;57.804;12.190;2023-04-16T13:20:09;18.00;64.20
24522;DHT22;12680;57.804;12.190;2023-04-16T13:22:36;18.20;64.10
24522;DHT22;12680;57.804;12.190;2023-04-16T13:25:03;18.20;63.80
24522;DHT22;12680;57.804;12.190;2023-04-16T13:27:30;18.30;63.50
24522;DHT22;12680;57.804;12.190;2023-04-16T13:29:58;19.40;63.80
24522;DHT22;12680;57.804;12.190;2023-04-16T13:32:24;18.10;62.30
24522;DHT22;12680;57.804;12.190;2023-04-16T13:34:51;18.20;61.80
24522;DHT22;12680;57.804;12.190;2023-04-16T13:37:18;18.40;62.60
24522;DHT22;12680;57.804;12.190;2023-04-16T13:39:45;18.40;62.50
24522;DHT22;12680;57.804;12.190;2023-04-16T13:42:12;18.50;62.00
24522;DHT22;12680;57.804;12.190;2023-04-16T13:44:39;18.60;62.20
24522;DHT22;12680;57.804;12.190;2023-04-16T13:47:06;18.70;61.80
24522;DHT22;12680;57.804;12.190;2023-04-16T13:49:33;18.70;61.40
24522;DHT22;12680;57.804;12.190;2023-04-16T13:52:02;18.70;61.30
24522;DHT22;12680;57.804;12.190;2023-04-16T13:54:29;18.60;61.50
24522;DHT22;12680;57.804;12.190;2023-04-16T13:56:55;18.60;61.10
24522;DHT22;12680;57.804;12.190;2023-04-16T13:59:22;18.50;60.90
24522;DHT22;12680;57.804;12.190;2023-04-16T14:01:50;18.40;60.80
24522;DHT22;12680;57.804;12.190;2023-04-16T14:04:16;18.30;61.10
24522;DHT22;12680;57.804;12.190;2023-04-16T14:06:44;18.40;61.30
24522;DHT22;12680;57.804;12.190;2023-04-16T14:09:11;18.70;61.30
24522;DHT22;12680;57.804;12.190;2023-04-16T14:11:38;18.40;60.40
24522;DHT22;12680;57.804;12.190;2023-04-16T14:14:05;18.40;59.80
24522;DHT22;12680;57.804;12.190;2023-04-16T14:16:32;18.30;60.00
24522;DHT22;12680;57.804;12.190;2023-04-16T14:18:59;18.20;60.60
24522;DHT22;12680;57.804;12.190;2023-04-16T14:21:26;18.10;59.70
24522;DHT22;12680;57.804;12.190;2023-04-16T14:23:53;18.00;60.00
24522;DHT22;12680;57.804;12.190;2023-04-16T14:26:20;18.10;60.40
24522;DHT22;12680;57.804;12.190;2023-04-16T14:28:47;18.00;60.20
24522;DHT22;12680;57.804;12.190;2023-04-16T14:31:13;18.00;60.10
24522;DHT22;12680;57.804;12.190;2023-04-16T14:33:42;18.00;60.60
24522;DHT22;12680;57.804;12.190;2023-04-16T14:36:09;17.90;59.50
24522;DHT22;12680;57.804;12.190;2023-04-16T14:38:36;17.80;60.00
24522;DHT22;12680;57.804;12.190;2023-04-16T14:41:03;17.70;59.80
24522;DHT22;12680;57.804;12.190;2023-04-16T14:43:30;17.80;60.80
24522;DHT22;12680;57.804;12.190;2023-04-16T14:45:57;17.90;61.20
24522;DHT22;12680;57.804;12.190;2023-04-16T14:48:24;18.00;60.90
24522;DHT22;12680;57.804;12.190;2023-04-16T14:50:52;18.00;61.00
24522;DHT22;12680;57.804;12.190;2023-04-16T14:53:21;18.10;60.80
24522;DHT22;12680;57.804;12.190;2023-04-16T14:55:48;18.10;60.70
24522;DHT22;12680;57.804;12.190;2023-04-16T14:58:15;18.20;61.20
24522;DHT22;12680;57.804;12.190;2023-04-16T15:00:41;18.20;60.80
24522;DHT22;12680;57.804;12.190;2023-04-16T15:03:08;18.10;60.40
24522;DHT22;12680;57.804;12.190;2023-04-16T15:05:35;18.10;60.80
24522;DHT22;12680;57.804;12.190;2023-04-16T15:08:02;18.10;61.30
24522;DHT22;12680;57.804;12.190;2023-04-16T15:10:30;18.10;61.10
24522;DHT22;12680;57.804;12.190;2023-04-16T15:12:58;17.90;61.40
24522;DHT22;12680;57.804;12.190;2023-04-16T15:15:25;17.90;62.60
24522;DHT22;12680;57.804;12.190;2023-04-16T15:17:51;17.80;61.80
24522;DHT22;12680;57.804;12.190;2023-04-16T15:20:18;17.70;62.20
24522;DHT22;12680;57.804;12.190;2023-04-16T15:22:45;17.70;62.80
24522;DHT22;12680;57.804;12.190;2023-04-16T15:25:12;17.70;62.90
24522;DHT22;12680;57.804;12.190;2023-04-16T15:27:40;17.70;63.00